Time;durP1;ratioP1;P1;durP2;ratioP2;P2;SDS_P1;SDS_P2;PMS_P1;PMS_P2;Temp;Humidity;BMP_temperature;BMP_pressure;BME280_temperature;BME280_humidity;BME280_pressure;Samples;Min_cycle;Max_cycle;Signal;HPM_P1;HPM_P2
2022/10/26 00:01:13;;;;;;;24.02;16.50;;;;;;;10.68;99.98;94795.05;1599487;89;22151;-53
2022/10/26 00:03:42;;;;;;;19.42;14.05;;;;;;;10.68;100.00;94793.67;1599397;89;21043;-53
2022/10/26 00:06:12;;;;;;;18.05;11.63;;;;;;;10.71;100.00;94791.40;1597142;89;21125;-52
2022/10/26 00:08:40;;;;;;;22.22;13.62;;;;;;;10.73;100.00;94788.97;1595512;89;21014;-53
2022/10/26 00:11:06;;;;;;;18.00;11.88;;;;;;;10.78;100.00;94795.42;1597854;89;21109;-53
2022/10/26 00:13:33;;;;;;;26.42;13.50;;;;;;;10.80;100.00;94791.61;1597612;89;21275;-53
2022/10/26 00:16:01;;;;;;;30.52;17.90;;;;;;;10.78;100.00;94782.29;1593997;89;21015;-53
2022/10/26 00:18:28;;;;;;;27.20;14.20;;;;;;;10.73;100.00;94779.50;1577408;89;21119;-53
2022/10/26 00:20:55;;;;;;;22.07;13.55;;;;;;;10.73;100.00;94779.34;1588815;89;21027;-53
2022/10/26 00:23:22;;;;;;;25.50;16.55;;;;;;;10.71;100.00;94776.27;1594608;89;21542;-52
2022/10/26 00:25:55;;;;;;;26.75;18.35;;;;;;;10.66;100.00;94772.09;1595000;89;21155;-52
2022/10/26 00:28:22;;;;;;;28.42;16.60;;;;;;;10.61;100.00;94773.27;1594318;89;21459;-53
2022/10/26 00:30:49;;;;;;;20.85;14.63;;;;;;;10.53;100.00;94774.12;1595551;89;21112;-52
2022/10/26 00:33:16;;;;;;;22.73;14.55;;;;;;;10.49;100.00;94778.98;1595309;89;21526;-52
2022/10/26 00:35:55;;;;;;;19.02;13.28;;;;;;;10.46;100.00;94774.97;1595837;89;21121;-52
2022/10/26 00:38:23;;;;;;;18.10;13.60;;;;;;;10.40;100.00;94765.75;1596168;89;21254;-52
2022/10/26 00:40:50;;;;;;;19.55;13.75;;;;;;;10.32;99.97;94759.73;1597679;89;21090;-51
2022/10/26 00:43:26;;;;;;;22.22;12.68;;;;;;;10.25;99.98;94758.61;1596015;89;21088;-52
2022/10/26 00:45:54;;;;;;;18.90;12.70;;;;;;;10.22;99.94;94755.97;1596985;89;21019;-52
2022/10/26 00:48:37;;;;;;;23.42;12.68;;;;;;;10.14;99.67;94760.18;1593511;89;21054;-52
2022/10/26 00:51:21;;;;;;;12.23;9.08;;;;;;;10.07;99.99;94770.02;1595541;89;21275;-53
2022/10/26 00:53:48;;;;;;;15.70;9.00;;;;;;;10.04;100.00;94780.53;1597018;89;21074;-52
2022/10/26 00:56:15;;;;;;;13.05;8.65;;;;;;;10.00;100.00;94781.98;1562728;91;21056;-52
2022/10/26 00:58:42;;;;;;;15.08;9.80;;;;;;;9.98;100.00;94789.14;1550692;91;21035;-53
2022/10/26 01:01:10;;;;;;;13.95;10.95;;;;;;;9.98;100.00;94793.27;1598455;89;21204;-53
2022/10/26 01:03:37;;;;;;;17.75;12.28;;;;;;;9.94;100.00;94800.83;1598291;89;21316;-52
2022/10/26 01:06:05;;;;;;;17.55;12.70;;;;;;;9.84;100.00;94801.34;1593525;89;20959;-52
2022/10/26 01:08:32;;;;;;;17.50;11.15;;;;;;;9.76;100.00;94794.54;1576180;89;21069;-52
2022/10/26 01:10:59;;;;;;;14.38;10.55;;;;;;;9.73;100.00;94802.88;1576192;89;21098;-52
2022/10/26 01:13:28;;;;;;;11.48;9.00;;;;;;;9.77;100.00;94803.56;1594051;89;21126;-52
2022/10/26 01:16:35;;;;;;;14.38;8.55;;;;;;;9.84;100.00;94794.47;1598194;89;21233;-53
2022/10/26 01:19:46;;;;;;;15.93;10.48;;;;;;;9.89;100.00;94799.44;1568307;91;21056;-53
2022/10/26 01:22:40;;;;;;;19.12;9.18;;;;;;;10.01;100.00;94808.28;1563073;91;21116;-52
2022/10/26 01:25:28;;;;;;;15.75;9.35;;;;;;;10.03;100.00;94809.22;1589998;89;21007;-52
2022/10/26 01:27:54;;;;;;;17.05;10.60;;;;;;;10.04;100.00;94814.88;1592876;89;21533;-52
2022/10/26 01:30:35;;;;;;;18.42;11.00;;;;;;;10.09;100.00;94804.11;1597527;89;22085;-52
2022/10/26 01:33:25;;;;;;;14.85;11.05;;;;;;;10.14;100.00;94813.78;1595485;89;21147;-53
2022/10/26 01:36:06;;;;;;;20.23;10.48;;;;;;;10.18;100.00;94817.18;1599489;88;21089;-52
2022/10/26 01:38:57;;;;;;;15.53;9.80;;;;;;;10.22;100.00;94816.45;1596364;89;21069;-51
2022/10/26 01:41:32;;;;;;;17.92;9.05;;;;;;;10.20;100.00;94807.26;1562079;91;22258;-52
2022/10/26 01:44:10;;;;;;;20.85;10.30;;;;;;;10.22;100.00;94815.08;1560127;89;21291;-53
2022/10/26 01:46:40;;;;;;;14.45;9.18;;;;;;;10.19;100.00;94814.59;1597902;89;21029;-53
2022/10/26 01:49:09;;;;;;;11.95;7.40;;;;;;;10.11;100.00;94817.39;1592171;88;20990;-53
2022/10/26 01:51:38;;;;;;;12.20;8.00;;;;;;;10.03;99.87;94813.34;1600636;89;20986;-52
2022/10/26 01:54:05;;;;;;;12.45;7.10;;;;;;;9.98;99.67;94806.39;1597222;89;21022;-51
2022/10/26 01:56:36;;;;;;;13.95;9.00;;;;;;;9.92;99.42;94815.63;1573641;90;21304;-52
2022/10/26 01:59:43;;;;;;;25.80;8.50;;;;;;;9.84;99.65;94822.56;1559279;91;21080;-54
2022/10/26 02:02:31;;;;;;;9.68;7.17;;;;;;;9.78;100.00;94821.59;1534090;92;21097;-54
2022/10/26 02:05:22;;;;;;;16.42;8.00;;;;;;;9.70;100.00;94829.27;1594272;89;21090;-52
2022/10/26 02:08:10;;;;;;;12.15;6.50;;;;;;;9.66;100.00;94818.22;1597215;89;21082;-52
2022/10/26 02:10:57;;;;;;;10.90;7.15;;;;;;;9.60;100.00;94824.86;1580147;89;21280;-52
2022/10/26 02:13:49;;;;;;;10.32;8.15;;;;;;;9.52;100.00;94831.00;1595135;89;21091;-52
2022/10/26 02:16:43;;;;;;;10.05;7.55;;;;;;;9.45;100.00;94822.98;1561334;90;21123;-51
2022/10/26 02:19:31;;;;;;;11.97;7.85;;;;;;;9.41;100.00;94819.59;1566270;91;21070;-52
2022/10/26 02:22:06;;;;;;;19.45;9.25;;;;;;;9.38;100.00;94821.81;1545345;91;21136;-53
2022/10/26 02:24:34;;;;;;;13.25;8.43;;;;;;;9.35;100.00;94828.17;1561674;91;21872;-53
2022/10/26 02:27:01;;;;;;;13.18;8.63;;;;;;;9.32;100.00;94822.98;1564713;91;21547;-54
2022/10/26 02:29:28;;;;;;;11.57;7.87;;;;;;;9.33;100.00;94827.26;1550584;91;21118;-53
2022/10/26 02:31:58;;;;;;;10.13;7.17;;;;;;;9.28;99.93;94824.28;1561158;91;21107;-52
2022/10/26 02:34:26;;;;;;;12.50;7.40;;;;;;;9.24;100.00;94830.48;1558908;91;21045;-52
2022/10/26 02:36:54;;;;;;;7.17;5.50;;;;;;;9.18;99.86;94819.85;1549551;91;21278;-52
2022/10/26 02:39:20;;;;;;;8.85;5.60;;;;;;;9.11;100.00;94824.19;1546575;91;21030;-51
2022/10/26 02:41:47;;;;;;;7.35;4.78;;;;;;;9.08;99.99;94825.06;1563978;91;21007;-53
2022/10/26 02:44:19;;;;;;;5.03;4.20;;;;;;;9.08;99.74;94834.66;1552121;91;21032;-52
2022/10/26 02:46:46;;;;;;;;;;;;;;;9.04;99.78;94834.00;1566849;91;21031;-51
2022/10/26 02:49:13;;;;;;;7.87;5.00;;;;;;;9.01;99.67;94818.37;1551770;91;22095;-54
2022/10/26 02:51:48;;;;;;;13.70;7.05;;;;;;;8.95;99.46;94828.36;1542936;91;21564;-51
2022/10/26 02:54:28;;;;;;;9.85;6.25;;;;;;;8.90;99.22;94831.64;1564047;91;21038;-52
2022/10/26 02:57:18;;;;;;;9.73;5.42;;;;;;;8.84;98.98;94842.95;1594517;89;21533;-52
2022/10/26 02:59:48;;;;;;;7.70;4.42;;;;;;;8.79;99.04;94833.14;1595756;89;21093;-51
2022/10/26 03:02:16;;;;;;;9.15;5.80;;;;;;;8.73;99.20;94835.64;1572037;90;21784;-51
2022/10/26 03:04:43;;;;;;;16.93;10.43;;;;;;;8.71;99.67;94836.67;1561634;91;21005;-53
2022/10/26 03:07:10;;;;;;;14.35;8.65;;;;;;;8.65;99.56;94841.13;1594459;89;21014;-53
2022/10/26 03:09:37;;;;;;;17.02;9.90;;;;;;;8.61;99.73;94844.56;1593475;89;21007;-53
2022/10/26 03:12:06;;;;;;;17.82;8.70;;;;;;;8.57;99.79;94848.01;1591577;89;21023;-53
2022/10/26 03:14:33;;;;;;;18.10;10.00;;;;;;;8.53;99.98;94848.70;1593629;88;21985;-53
2022/10/26 03:17:01;;;;;;;15.55;11.12;;;;;;;8.50;100.00;94842.72;1574038;89;20999;-53
2022/10/26 03:19:29;;;;;;;13.60;10.45;;;;;;;8.46;100.00;94848.87;1598959;89;21077;-53
2022/10/26 03:21:56;;;;;;;14.35;9.50;;;;;;;8.41;100.00;94854.88;1592895;89;21427;-54
2022/10/26 03:24:23;;;;;;;15.03;8.90;;;;;;;8.39;100.00;94860.03;1595322;89;20994;-53
2022/10/26 03:26:49;;;;;;;13.03;8.75;;;;;;;8.36;100.00;94854.04;1568039;90;21288;-52
2022/10/26 03:29:18;;;;;;;12.75;9.00;;;;;;;8.30;100.00;94854.98;1592262;89;21111;-52
2022/10/26 03:31:45;;;;;;;16.15;9.25;;;;;;;8.31;100.00;94868.27;1546302;90;20996;-53
2022/10/26 03:34:12;;;;;;;14.75;6.62;;;;;;;8.26;100.00;94870.14;1557265;91;21047;-52
2022/10/26 03:36:39;;;;;;;16.25;7.90;;;;;;;8.23;100.00;94862.78;1536732;91;21558;-52
2022/10/26 03:39:06;;;;;;;11.05;7.37;;;;;;;8.20;100.00;94866.97;1540345;91;21472;-53
2022/10/26 03:41:34;;;;;;;11.57;7.40;;;;;;;8.12;100.00;94870.47;1551352;91;21527;-53
2022/10/26 03:44:01;;;;;;;14.43;7.97;;;;;;;8.03;100.00;94865.42;1545497;91;21065;-52
2022/10/26 03:46:28;;;;;;;22.30;13.50;;;;;;;7.96;100.00;94867.72;1543587;91;21070;-52
2022/10/26 03:48:55;;;;;;;24.82;12.03;;;;;;;7.93;100.00;94874.06;1544917;91;21020;-52
2022/10/26 03:51:23;;;;;;;24.05;13.93;;;;;;;7.91;100.00;94870.95;1540376;91;21080;-52
2022/10/26 03:53:50;;;;;;;19.17;12.35;;;;;;;7.89;100.00;94875.33;1597029;89;21208;-53
2022/10/26 03:56:17;;;;;;;15.10;10.15;;;;;;;7.93;100.00;94882.86;1597551;89;21169;-52
2022/10/26 03:58:44;;;;;;;15.78;10.72;;;;;;;7.90;100.00;94882.35;1598090;89;21177;-54
2022/10/26 04:01:10;;;;;;;13.93;9.85;;;;;;;7.87;100.00;94879.86;1594574;89;21046;-51
2022/10/26 04:03:38;;;;;;;13.50;9.70;;;;;;;7.81;100.00;94893.11;1560259;91;21643;-53
2022/10/26 04:06:06;;;;;;;18.75;13.03;;;;;;;7.73;100.00;94889.75;1551116;91;21095;-53
2022/10/26 04:08:33;;;;;;;18.27;11.70;;;;;;;7.63;100.00;94892.73;1531273;92;21011;-53
2022/10/26 04:11:00;;;;;;;18.52;13.55;;;;;;;7.60;100.00;94901.21;1542465;92;21052;-53
2022/10/26 04:13:27;;;;;;;22.42;14.47;;;;;;;7.58;100.00;94896.77;1537203;92;21000;-53
2022/10/26 04:15:54;;;;;;;23.85;15.25;;;;;;;7.58;100.00;94902.81;1514366;92;21241;-52
2022/10/26 04:18:21;;;;;;;23.98;15.35;;;;;;;7.54;100.00;94896.04;1563843;89;21034;-52
2022/10/26 04:20:48;;;;;;;20.10;14.45;;;;;;;7.58;100.00;94899.50;1572740;89;21570;-51
2022/10/26 04:23:17;;;;;;;14.75;11.85;;;;;;;7.64;100.00;94890.95;1591865;89;21459;-52
2022/10/26 04:25:45;;;;;;;26.07;16.35;;;;;;;7.70;100.00;94897.45;1589273;89;20976;-52
2022/10/26 04:28:12;;;;;;;31.68;21.57;;;;;;;7.77;100.00;94898.69;1593088;89;21309;-54
2022/10/26 04:30:40;;;;;;;34.92;23.80;;;;;;;7.81;100.00;94902.69;1592750;89;21021;-53
2022/10/26 04:33:07;;;;;;;25.10;17.87;;;;;;;7.81;100.00;94895.27;1562810;89;21146;-53
2022/10/26 04:35:35;;;;;;;28.85;18.42;;;;;;;7.83;100.00;94892.87;1594181;89;20986;-55
2022/10/26 04:38:05;;;;;;;20.90;15.60;;;;;;;7.84;100.00;94903.98;1595767;89;21015;-53
2022/10/26 04:40:33;;;;;;;22.62;15.88;;;;;;;7.84;99.94;94903.98;1596288;89;22093;-54
2022/10/26 04:43:01;;;;;;;28.65;19.35;;;;;;;7.87;100.00;94900.40;1596746;89;21125;-53
2022/10/26 04:45:29;;;;;;;30.08;21.37;;;;;;;7.87;99.77;94907.24;1593533;88;21625;-52
2022/10/26 04:48:06;;;;;;;21.65;15.88;;;;;;;7.86;99.34;94903.58;1572771;90;20951;-54
2022/10/26 04:50:33;;;;;;;19.05;12.98;;;;;;;7.82;99.20;94903.65;1590190;89;21494;-54
2022/10/26 04:53:02;;;;;;;16.40;10.38;;;;;;;7.77;98.71;94906.11;1597636;89;21203;-53
2022/10/26 04:55:29;;;;;;;14.50;10.18;;;;;;;7.71;98.49;94897.62;1596953;89;21018;-55
2022/10/26 04:57:55;;;;;;;16.02;9.30;;;;;;;7.67;98.31;94892.83;1590892;89;21027;-54
2022/10/26 05:00:22;;;;;;;10.30;8.63;;;;;;;7.66;98.48;94898.14;1596021;89;21014;-54
2022/10/26 05:02:49;;;;;;;17.77;8.63;;;;;;;7.65;98.77;94892.48;1578276;89;21073;-53
2022/10/26 05:05:16;;;;;;;11.83;9.00;;;;;;;7.68;98.93;94890.27;1566045;91;21171;-54
2022/10/26 05:07:43;;;;;;;33.48;19.32;;;;;;;7.73;99.09;94898.58;1553095;90;21015;-53
2022/10/26 05:10:11;;;;;;;47.95;25.55;;;;;;;7.74;98.88;94899.51;1534780;92;21014;-54
2022/10/26 05:12:40;;;;;;;50.88;25.43;;;;;;;7.73;98.45;94902.08;1593735;89;21168;-55
2022/10/26 05:15:10;;;;;;;37.70;23.92;;;;;;;7.66;98.23;94904.98;1591433;89;21037;-56
2022/10/26 05:17:38;;;;;;;35.03;21.30;;;;;;;7.67;98.63;94899.67;1591872;89;21213;-52
2022/10/26 05:20:11;;;;;;;36.30;20.43;;;;;;;7.68;98.54;94908.06;1594787;89;21416;-52
2022/10/26 05:22:36;;;;;;;32.45;18.32;;;;;;;7.71;98.44;94916.03;1589521;89;21164;-52
2022/10/26 05:25:06;;;;;;;27.65;17.30;;;;;;;7.74;98.54;94915.94;1571236;89;20986;-54
2022/10/26 05:27:33;;;;;;;54.75;29.32;;;;;;;7.79;98.88;94926.41;1596588;89;21162;-52
2022/10/26 05:30:00;;;;;;;60.43;31.02;;;;;;;7.90;99.62;94924.19;1597227;89;21163;-54
2022/10/26 05:32:28;;;;;;;45.52;24.82;;;;;;;8.01;99.52;94931.59;1574660;89;21109;-52
2022/10/26 05:34:56;;;;;;;41.70;25.55;;;;;;;8.08;98.95;94931.41;1628893;85;21029;-53
2022/10/26 05:37:23;;;;;;;41.95;26.40;;;;;;;8.12;98.68;94939.56;1654530;85;21022;-53
2022/10/26 05:39:52;;;;;;;44.20;27.70;;;;;;;8.21;99.01;94937.80;1620522;86;21460;-51
2022/10/26 05:42:19;;;;;;;44.38;23.42;;;;;;;8.21;98.14;94940.54;1625585;86;21266;-53
2022/10/26 05:44:46;;;;;;;35.55;22.13;;;;;;;8.18;97.66;94934.55;1638084;85;21069;-56
2022/10/26 05:47:13;;;;;;;33.75;23.45;;;;;;;8.13;97.24;94950.11;1646409;85;21085;-57
2022/10/26 05:49:40;;;;;;;38.83;23.75;;;;;;;8.19;97.70;94948.42;1652233;84;21042;-57
2022/10/26 05:52:08;;;;;;;34.08;23.67;;;;;;;8.30;97.86;94948.95;1662613;84;21030;-57
2022/10/26 05:54:35;;;;;;;37.70;25.40;;;;;;;8.37;97.67;94954.84;1636321;85;21964;-57
2022/10/26 05:57:02;;;;;;;34.10;22.87;;;;;;;8.46;97.48;94961.27;1651557;85;21141;-59
2022/10/26 05:59:32;;;;;;;29.50;21.00;;;;;;;8.47;96.80;94955.96;1619465;86;21149;-58
2022/10/26 06:02:33;;;;;;;31.62;20.12;;;;;;;8.46;96.85;94961.27;1640926;84;21038;-57
2022/10/26 06:05:04;;;;;;;38.95;26.35;;;;;;;8.52;96.87;94961.54;1655881;85;21050;-58
2022/10/26 06:07:33;;;;;;;29.72;19.05;;;;;;;8.62;97.20;94955.80;1623644;86;21138;-53
2022/10/26 06:10:01;;;;;;;32.90;18.42;;;;;;;8.74;97.31;94970.20;1660615;83;21064;-53
2022/10/26 06:12:30;;;;;;;21.55;16.12;;;;;;;8.82;96.59;94967.44;1657322;83;21101;-52
2022/10/26 06:14:58;;;;;;;23.95;17.90;;;;;;;8.89;96.71;94972.15;1656847;84;21054;-56
2022/10/26 06:17:58;;;;;;;26.45;20.48;;;;;;;8.99;96.71;94963.47;1647800;85;21072;-54
2022/10/26 06:20:56;;;;;;;53.23;30.20;;;;;;;9.13;96.62;94974.09;1653734;85;21174;-54
2022/10/26 06:23:40;;;;;;;35.38;24.67;;;;;;;9.27;96.09;94973.10;1609549;86;21722;-55
2022/10/26 06:26:33;;;;;;;36.55;26.87;;;;;;;9.43;96.17;94974.44;1602496;87;21549;-54
2022/10/26 06:29:28;;;;;;;28.38;21.87;;;;;;;9.54;95.60;94974.92;1641152;84;21058;-55
2022/10/26 06:31:56;;;;;;;32.38;24.77;;;;;;;9.68;95.95;94975.91;1652085;85;20981;-54
2022/10/26 06:34:27;;;;;;;36.20;27.65;;;;;;;9.79;95.57;94984.60;1621016;86;21214;-54
2022/10/26 06:36:56;;;;;;;37.00;26.05;;;;;;;9.88;95.80;94969.64;1649122;84;21086;-56
2022/10/26 06:39:24;;;;;;;64.22;40.65;;;;;;;9.98;95.47;94965.79;1647598;85;22358;-54
2022/10/26 06:41:52;;;;;;;81.22;47.88;;;;;;;10.10;95.37;94973.32;1642629;85;21220;-56
2022/10/26 06:44:24;;;;;;;70.52;44.35;;;;;;;10.22;95.12;94971.20;1635230;85;21113;-60
2022/10/26 06:47:25;;;;;;;55.57;37.70;;;;;;;10.36;94.86;94967.99;1621029;86;21113;-59
2022/10/26 06:50:21;;;;;;;37.38;25.08;;;;;;;10.55;95.04;94973.88;1607537;88;21092;-59
2022/10/26 06:53:05;;;;;;;24.92;16.25;;;;;;;10.73;93.70;94976.83;1617361;86;21038;-59
2022/10/26 06:55:40;;;;;;;39.85;22.70;;;;;;;10.83;92.88;94967.47;1595815;87;21059;-56
2022/10/26 06:58:17;;;;;;;21.77;14.65;;;;;;;10.94;92.43;94970.03;1615727;87;21601;-55
2022/10/26 07:00:47;;;;;;;19.15;13.30;;;;;;;11.02;92.02;94972.70;1653294;84;21156;-60
2022/10/26 07:03:14;;;;;;;23.62;16.57;;;;;;;11.04;91.54;94974.43;1643291;85;21043;-56
2022/10/26 07:05:43;;;;;;;18.02;14.53;;;;;;;11.08;91.72;94973.70;1659686;83;28883;-55
2022/10/26 07:08:10;;;;;;;16.80;12.13;;;;;;;11.21;91.48;94977.16;1669021;83;21102;-56
2022/10/26 07:10:41;;;;;;;13.40;9.43;;;;;;;11.30;91.50;94982.77;1685687;83;21051;-57
2022/10/26 07:13:09;;;;;;;12.13;10.08;;;;;;;11.47;91.64;94984.73;1675711;83;21213;-55
2022/10/26 07:15:41;;;;;;;11.08;8.58;;;;;;;11.66;91.36;94982.32;1682513;83;21115;-59
2022/10/26 07:18:11;;;;;;;11.10;8.63;;;;;;;11.82;90.98;94982.92;1677745;83;21139;-55
2022/10/26 07:20:39;;;;;;;14.43;10.13;;;;;;;11.96;90.61;94985.76;1661013;83;21152;-55
2022/10/26 07:23:11;;;;;;;17.82;12.53;;;;;;;12.10;90.15;94989.38;1691458;82;21030;-55
2022/10/26 07:25:39;;;;;;;18.57;13.58;;;;;;;12.18;88.93;94988.66;1630301;85;21241;-55
2022/10/26 07:28:08;;;;;;;13.30;11.20;;;;;;;12.21;88.36;94988.35;1625708;85;21203;-58
2022/10/26 07:30:36;;;;;;;29.05;19.20;;;;;;;12.22;87.90;94986.53;1642344;85;21027;-56
2022/10/26 07:33:07;;;;;;;38.42;21.40;;;;;;;12.18;86.91;94984.52;1644425;85;20999;-58
2022/10/26 07:35:37;;;;;;;21.87;15.60;;;;;;;12.12;86.81;94987.69;1644588;86;21015;-57
2022/10/26 07:38:18;;;;;;;13.08;9.43;;;;;;;12.19;87.34;94986.06;1639868;85;21266;-56
2022/10/26 07:40:54;;;;;;;11.97;10.40;;;;;;;12.35;87.49;94985.84;1634276;85;21030;-56
2022/10/26 07:43:21;;;;;;;13.75;9.23;;;;;;;12.53;87.02;94979.63;1621613;86;21042;-54
2022/10/26 07:45:50;;;;;;;8.23;7.12;;;;;;;12.66;86.32;94980.45;1623103;85;20997;-56
2022/10/26 07:48:17;;;;;;;9.10;7.20;;;;;;;12.80;85.44;94972.22;1623440;85;21054;-54
2022/10/26 07:50:44;;;;;;;18.67;9.80;;;;;;;12.91;84.53;94967.05;1623877;85;21814;-57
2022/10/26 07:53:12;;;;;;;14.90;8.63;;;;;;;12.97;83.91;94965.23;1621019;86;21529;-55
2022/10/26 07:55:41;;;;;;;20.48;10.85;;;;;;;13.00;83.89;94967.08;1621092;87;21141;-57
2022/10/26 07:58:09;;;;;;;13.20;7.85;;;;;;;13.06;83.86;94968.03;1625566;86;21060;-55
2022/10/26 08:00:36;;;;;;;10.88;7.97;;;;;;;13.12;83.61;94967.58;1625000;86;22720;-60
2022/10/26 08:03:03;;;;;;;9.90;8.23;;;;;;;13.21;83.87;94971.72;1675201;83;21913;-55
2022/10/26 08:05:32;;;;;;;10.35;7.33;;;;;;;13.37;83.52;94971.44;1668738;83;21094;-59
2022/10/26 08:07:58;;;;;;;9.28;7.00;;;;;;;13.47;82.10;94967.47;1677386;83;21113;-54
2022/10/26 08:10:25;;;;;;;8.28;6.20;;;;;;;13.46;82.03;94967.31;1666150;83;21044;-53
2022/10/26 08:12:52;;;;;;;6.78;5.17;;;;;;;13.45;82.41;94969.30;1671726;83;21491;-56
2022/10/26 08:15:20;;;;;;;6.42;5.33;;;;;;;13.54;82.77;94965.77;1679710;82;21099;-57
2022/10/26 08:17:48;;;;;;;12.50;5.00;;;;;;;13.55;82.82;94964.54;1666624;83;21029;-51
2022/10/26 08:20:16;;;;;;;7.10;4.80;;;;;;;13.58;83.02;94969.14;1655860;84;21083;-54
2022/10/26 08:22:44;;;;;;;6.20;4.85;;;;;;;13.64;83.10;94962.55;1682275;83;21830;-54
2022/10/26 08:25:11;;;;;;;7.20;4.95;;;;;;;13.70;82.89;94970.39;1644406;84;21128;-56
2022/10/26 08:27:38;;;;;;;5.42;4.62;;;;;;;13.82;82.96;94961.78;1661718;84;21148;-58
2022/10/26 08:30:07;;;;;;;7.33;4.45;;;;;;;13.93;83.16;94968.38;1649982;82;21117;-56
2022/10/26 08:32:35;;;;;;;8.90;5.50;;;;;;;14.06;82.92;94970.96;1672246;83;21060;-57
2022/10/26 08:35:05;;;;;;;8.85;6.15;;;;;;;14.18;82.75;94970.81;1679697;83;21492;-57
2022/10/26 08:37:32;;;;;;;8.83;5.35;;;;;;;14.28;81.83;94972.34;1685258;83;21071;-54
2022/10/26 08:39:59;;;;;;;6.42;5.72;;;;;;;14.40;81.03;94976.90;1681504;83;21769;-54
2022/10/26 08:42:43;;;;;;;6.58;5.00;;;;;;;14.51;79.92;94976.58;1682176;83;21075;-57
2022/10/26 08:45:19;;;;;;;6.85;5.42;;;;;;;14.57;79.68;94978.08;1678607;83;21088;-55
2022/10/26 08:47:48;;;;;;;8.63;5.40;;;;;;;14.55;78.32;94984.09;1668247;83;21129;-55
2022/10/26 08:50:26;;;;;;;6.42;5.70;;;;;;;14.57;78.29;94981.62;1697275;81;21047;-55
2022/10/26 08:53:04;;;;;;;12.13;7.58;;;;;;;14.59;78.54;94981.92;1671336;84;21263;-56
2022/10/26 08:55:43;;;;;;;11.45;8.13;;;;;;;14.63;78.20;94988.05;1679702;84;21555;-54
2022/10/26 08:58:20;;;;;;;10.38;5.53;;;;;;;14.64;77.84;94985.44;1662158;84;21056;-58
2022/10/26 09:00:48;;;;;;;9.48;5.58;;;;;;;14.59;78.13;94984.69;1679723;83;21246;-56
2022/10/26 09:03:16;;;;;;;14.15;7.60;;;;;;;14.56;77.65;94984.25;1682839;83;21063;-51
2022/10/26 09:06:10;;;;;;;25.92;16.15;;;;;;;14.56;77.27;94990.39;1671134;83;21849;-54
2022/10/26 09:08:46;;;;;;;30.15;17.80;;;;;;;14.47;76.99;94984.26;1640934;85;21061;-54
2022/10/26 09:11:31;;;;;;;29.27;17.20;;;;;;;14.58;78.03;94988.70;1649555;85;21088;-58
2022/10/26 09:14:24;;;;;;;23.30;16.42;;;;;;;14.90;79.03;94986.58;1636463;85;21192;-59
2022/10/26 09:17:14;;;;;;;19.95;11.63;;;;;;;15.32;78.12;94980.99;1642116;83;21130;-55
2022/10/26 09:19:59;;;;;;;18.00;10.40;;;;;;;15.73;76.86;94978.05;1641071;85;21265;-56
2022/10/26 09:22:47;;;;;;;12.30;7.70;;;;;;;16.14;75.61;94983.26;1650998;85;21026;-55
2022/10/26 09:25:20;;;;;;;9.08;6.87;;;;;;;16.64;73.80;94990.64;1614433;86;21156;-58
2022/10/26 09:27:55;;;;;;;8.53;5.85;;;;;;;17.30;71.30;94982.55;1621610;85;21010;-55
2022/10/26 09:30:23;;;;;;;10.18;5.42;;;;;;;17.91;68.46;94988.30;1633259;85;21175;-58
2022/10/26 09:33:01;;;;;;;13.20;5.20;;;;;;;18.20;65.37;94991.05;1650832;85;21405;-56
2022/10/26 09:35:54;;;;;;;16.12;7.78;;;;;;;18.28;63.56;94981.67;1628195;85;21040;-55
2022/10/26 09:38:33;;;;;;;18.35;9.15;;;;;;;18.48;61.46;94981.61;1672662;83;21029;-56
2022/10/26 09:41:14;;;;;;;9.73;4.75;;;;;;;18.74;60.11;94992.87;1691467;83;21046;-56
2022/10/26 09:43:56;;;;;;;13.18;3.50;;;;;;;19.07;55.94;94990.98;1678598;83;21166;-54
2022/10/26 09:46:30;;;;;;;5.55;3.62;;;;;;;19.33;52.06;94995.25;1679184;83;21228;-57
2022/10/26 09:49:04;;;;;;;13.85;2.52;;;;;;;19.58;51.55;94981.82;1673289;82;21464;-54
2022/10/26 09:51:35;;;;;;;7.87;2.35;;;;;;;19.91;50.73;94975.00;1674965;83;21065;-59
2022/10/26 09:54:06;;;;;;;3.87;2.90;;;;;;;20.31;49.90;94978.22;1680315;82;21139;-57
2022/10/26 09:56:33;;;;;;;16.13;4.10;;;;;;;20.48;48.12;94979.64;1672066;83;21220;-56
2022/10/26 09:59:04;;;;;;;8.83;3.02;;;;;;;20.33;48.02;94977.69;1629529;84;21234;-53
2022/10/26 10:01:35;;;;;;;3.30;2.55;;;;;;;19.94;46.50;94989.35;1675748;83;21071;-55
2022/10/26 10:04:19;;;;;;;4.20;3.10;;;;;;;19.39;47.39;94984.88;1671561;83;21040;-55
2022/10/26 10:06:49;;;;;;;4.12;2.70;;;;;;;18.89;49.05;94989.95;1675324;83;21104;-57
2022/10/26 10:09:19;;;;;;;3.25;2.85;;;;;;;18.41;50.41;94995.34;1681156;83;21148;-55
2022/10/26 10:11:56;;;;;;;3.80;2.83;;;;;;;18.03;51.53;94991.36;1667818;84;20994;-59
2022/10/26 10:14:33;;;;;;;2.70;2.40;;;;;;;17.72;52.21;94996.18;1673086;84;20968;-56
2022/10/26 10:17:07;;;;;;;5.60;2.40;;;;;;;17.67;52.46;94997.50;1667159;83;21040;-59
2022/10/26 10:19:36;;;;;;;2.85;1.98;;;;;;;18.12;52.54;94990.58;1678419;83;21108;-56
2022/10/26 10:22:22;;;;;;;9.75;8.18;;;;;;;18.56;49.46;94984.86;1670985;84;21074;-57
2022/10/26 10:24:57;;;;;;;11.38;4.90;;;;;;;18.81;48.51;95000.78;1653740;84;21350;-54
2022/10/26 10:27:25;;;;;;;14.87;12.58;;;;;;;19.47;49.01;94997.12;1674320;84;21050;-52
2022/10/26 10:29:57;;;;;;;6.42;5.83;;;;;;;20.25;46.59;94999.02;1655859;85;21469;-54
2022/10/26 10:32:26;;;;;;;22.37;2.80;;;;;;;21.00;45.61;94991.30;1636509;85;20970;-52
2022/10/26 10:34:59;;;;;;;8.95;4.12;;;;;;;21.74;44.36;94986.64;1608770;87;21509;-53
2022/10/26 10:37:41;;;;;;;6.58;2.47;;;;;;;22.34;43.42;94987.80;1646218;85;21468;-51
2022/10/26 10:40:10;;;;;;;3.20;2.22;;;;;;;22.94;41.05;94986.67;1641625;86;21089;-51
2022/10/26 10:42:38;;;;;;;3.00;2.42;;;;;;;23.50;39.53;94984.95;1685587;83;21189;-52
2022/10/26 10:45:20;;;;;;;5.70;3.33;;;;;;;23.78;37.59;94982.59;1673605;84;21194;-53
2022/10/26 10:48:14;;;;;;;5.75;2.83;;;;;;;23.85;37.82;94985.50;1653274;82;21107;-53
2022/10/26 10:51:04;;;;;;;4.97;4.47;;;;;;;23.28;38.85;94982.34;1672809;83;21874;-55
2022/10/26 10:53:55;;;;;;;8.88;6.78;;;;;;;23.04;39.94;94989.27;1679907;82;21037;-56
2022/10/26 10:56:41;;;;;;;10.80;9.77;;;;;;;23.13;39.73;94990.39;1670278;84;21053;-55
2022/10/26 10:59:41;;;;;;;12.73;8.90;;;;;;;22.86;40.17;95000.39;1649012;84;21084;-54
2022/10/26 11:02:42;;;;;;;4.85;3.65;;;;;;;22.42;41.30;94994.41;1619554;85;21729;-59
2022/10/26 11:05:29;;;;;;;6.62;4.25;;;;;;;21.68;42.42;94999.88;1625055;86;22183;-57
2022/10/26 11:08:13;;;;;;;5.67;3.77;;;;;;;20.98;43.92;95003.64;1665441;83;21018;-54
2022/10/26 11:10:50;;;;;;;5.58;4.83;;;;;;;20.60;44.84;95001.52;1665880;83;21570;-56
2022/10/26 11:13:22;;;;;;;7.30;3.75;;;;;;;20.22;44.12;95009.81;1655064;83;21010;-57
2022/10/26 11:15:54;;;;;;;7.75;6.30;;;;;;;19.87;44.63;95010.78;1682851;82;21051;-55
2022/10/26 11:18:40;;;;;;;10.50;2.25;;;;;;;19.66;44.79;95019.19;1671955;83;21073;-56
2022/10/26 11:21:22;;;;;;;5.95;3.42;;;;;;;19.63;45.65;95010.41;1675913;83;21682;-56
2022/10/26 11:23:53;;;;;;;8.38;2.22;;;;;;;20.12;45.21;95011.29;1647794;84;21137;-55
2022/10/26 11:26:26;;;;;;;4.35;3.25;;;;;;;21.13;44.09;95008.98;1674813;83;21039;-57
2022/10/26 13:32:48;;;;;;;2.40;2.20;;;;;;;16.85;51.75;95049.81;1760926;79;26470;-62
2022/10/26 13:35:16;;;;;;;3.55;2.33;;;;;;;16.77;51.95;95056.38;1722672;80;21782;-68
2022/10/26 13:37:46;;;;;;;4.37;2.37;;;;;;;16.86;52.67;95061.86;1706868;82;21129;-65
2022/10/26 13:40:21;;;;;;;3.05;2.62;;;;;;;17.16;52.55;95059.81;1716045;81;21090;-66
2022/10/26 13:43:01;;;;;;;4.22;3.02;;;;;;;17.49;52.35;95058.97;1709682;80;21049;-60
2022/10/26 13:45:53;;;;;;;16.25;7.33;;;;;;;17.88;51.62;95059.65;1709825;81;21462;-63
2022/10/26 13:48:41;;;;;;;25.40;15.30;;;;;;;18.67;50.70;95068.56;1708894;81;21107;-63
2022/10/26 13:51:24;;;;;;;6.35;4.55;;;;;;;19.81;48.48;95063.06;1710056;81;21757;-70
2022/10/26 13:53:55;;;;;;;3.35;3.05;;;;;;;20.89;45.27;95052.83;1695999;81;21148;-71
2022/10/26 13:56:57;;;;;;;2.00;1.90;;;;;;;21.72;43.85;95058.45;1699920;81;21020;-68